createdAt,value
2019-03-29T00:01:51.521Z,13.97
2019-03-29T00:04:23.031Z,13.60
2019-03-29T00:06:53.422Z,15.10
2019-03-29T00:09:23.614Z,9.33
2019-03-29T00:11:56.062Z,12.57
2019-03-29T00:14:26.244Z,13.67
2019-03-29T00:16:56.441Z,11.97
2019-03-29T00:19:27.813Z,14.00
2019-03-29T00:22:01.971Z,18.60
2019-03-29T00:24:32.213Z,19.47
2019-03-29T00:27:04.060Z,19.60
2019-03-29T00:29:34.174Z,17.83
2019-03-29T00:32:06.081Z,24.03
2019-03-29T00:34:36.395Z,18.83
2019-03-29T00:37:06.638Z,14.70
2019-03-29T00:39:38.096Z,12.73
2019-03-29T00:42:08.279Z,12.00
2019-03-29T00:44:39.859Z,12.27
2019-03-29T00:47:11.714Z,17.27
2019-03-29T00:49:41.976Z,16.50
2019-03-29T00:52:13.020Z,14.40
2019-03-29T00:54:43.173Z,13.33
2019-03-29T00:57:15.961Z,23.20
2019-03-29T00:59:47.231Z,18.03
2019-03-29T01:02:18.933Z,11.67
2019-03-29T01:04:51.329Z,12.50
2019-03-29T01:07:24.842Z,14.30
2019-03-29T01:09:55.031Z,14.43
2019-03-29T01:12:26.931Z,13.27
2019-03-29T01:14:57.152Z,10.63
2019-03-29T01:17:29.373Z,11.97
2019-03-29T01:20:00.570Z,11.60
2019-03-29T01:22:31.331Z,14.80
2019-03-29T01:25:04.760Z,11.20
2019-03-29T01:27:38.772Z,11.70
2019-03-29T01:30:09.287Z,11.37
2019-03-29T01:32:40.542Z,13.37
2019-03-29T01:35:13.253Z,12.93
2019-03-29T01:37:43.386Z,12.50
2019-03-29T01:40:14.907Z,15.83
2019-03-29T01:42:45.291Z,9.80
2019-03-29T01:45:15.615Z,9.77
2019-03-29T01:47:45.805Z,8.77
2019-03-29T01:50:16.048Z,22.03
2019-03-29T01:52:46.220Z,16.13
2019-03-29T01:55:16.437Z,11.53
2019-03-29T01:57:46.660Z,14.30
2019-03-29T02:00:23.524Z,10.37
2019-03-29T02:02:53.682Z,7.37
2019-03-29T02:05:27.784Z,8.27
2019-03-29T02:07:58.132Z,11.67
2019-03-29T02:10:28.362Z,11.23
2019-03-29T02:12:59.209Z,22.93
2019-03-29T02:15:31.737Z,22.57
2019-03-29T02:18:04.167Z,17.53
2019-03-29T02:20:34.318Z,11.90
2019-03-29T02:23:05.522Z,8.57
2019-03-29T02:25:36.683Z,9.40
2019-03-29T02:28:08.095Z,12.00
2019-03-29T02:30:38.351Z,9.43
2019-03-29T02:33:09.596Z,10.57
2019-03-29T02:35:41.337Z,13.47
2019-03-29T02:38:13.803Z,12.30
2019-03-29T02:40:45.845Z,10.73
2019-03-29T02:43:15.929Z,9.27
2019-03-29T02:45:46.167Z,13.07
2019-03-29T02:48:16.991Z,12.63
2019-03-29T02:50:49.858Z,13.90
2019-03-29T02:53:20.065Z,13.00
2019-03-29T02:55:53.046Z,10.57
2019-03-29T02:58:23.188Z,14.17
2019-03-29T03:00:55.814Z,10.83
2019-03-29T03:03:29.893Z,8.50
2019-03-29T03:06:06.775Z,14.00
2019-03-29T03:08:36.921Z,10.77
2019-03-29T03:11:07.184Z,11.27
2019-03-29T03:13:38.673Z,10.43
2019-03-29T03:16:14.209Z,13.97
2019-03-29T03:18:44.457Z,11.77
2019-03-29T03:21:14.784Z,9.97
2019-03-29T03:23:44.978Z,15.30
2019-03-29T03:26:17.320Z,14.13
2019-03-29T03:28:47.356Z,11.60
2019-03-29T03:31:17.557Z,12.30
2019-03-29T03:33:47.830Z,11.97
2019-03-29T03:36:18.177Z,11.37
2019-03-29T03:38:49.605Z,15.47
2019-03-29T03:41:19.838Z,12.23
2019-03-29T03:43:51.513Z,13.57
2019-03-29T03:46:21.783Z,13.13
2019-03-29T03:48:51.923Z,9.57
2019-03-29T03:51:22.354Z,12.07
2019-03-29T03:53:54.145Z,10.30
2019-03-29T03:56:25.832Z,9.80
2019-03-29T03:58:56.348Z,11.13
2019-03-29T04:01:28.367Z,11.13
2019-03-29T04:03:58.588Z,14.57
2019-03-29T04:06:33.092Z,11.57
2019-03-29T04:09:05.514Z,10.07
2019-03-29T04:11:37.180Z,9.03
2019-03-29T04:14:11.072Z,19.57
2019-03-29T04:16:42.963Z,6.30
2019-03-29T04:19:16.713Z,9.57
2019-03-29T04:21:46.847Z,15.73
2019-03-29T04:24:18.071Z,10.17
2019-03-29T04:26:53.125Z,13.67
2019-03-29T04:29:23.321Z,11.10
2019-03-29T04:31:54.755Z,7.93
2019-03-29T04:34:27.017Z,11.63
2019-03-29T04:36:57.214Z,13.57
2019-03-29T04:39:27.414Z,9.70
2019-03-29T04:41:59.431Z,12.77
2019-03-29T04:44:31.783Z,12.03
2019-03-29T04:47:03.663Z,13.60
2019-03-29T04:49:35.296Z,13.17
2019-03-29T04:52:05.335Z,13.13
2019-03-29T04:54:35.470Z,10.43
2019-03-29T04:57:05.733Z,21.37
2019-03-29T04:59:36.905Z,10.57
2019-03-29T05:02:09.965Z,13.67
2019-03-29T05:04:41.117Z,12.37
2019-03-29T05:07:13.146Z,12.07
2019-03-29T05:09:45.520Z,12.97
2019-03-29T05:12:15.698Z,14.87
2019-03-29T05:14:49.008Z,17.00
2019-03-29T05:17:19.147Z,18.17
2019-03-29T05:19:49.185Z,19.63
2019-03-29T05:22:21.423Z,25.73
2019-03-29T05:24:51.650Z,43.80
2019-03-29T05:27:23.844Z,89.77
2019-03-29T05:29:53.926Z,42.77
2019-03-29T05:32:25.530Z,21.73
2019-03-29T05:34:55.618Z,27.83
2019-03-29T05:37:25.849Z,24.33
2019-03-29T05:39:56.112Z,26.00
2019-03-29T05:42:27.378Z,28.97
2019-03-29T05:44:58.804Z,29.07
2019-03-29T05:47:31.396Z,54.47
2019-03-29T05:50:04.110Z,36.53
2019-03-29T05:52:34.362Z,43.47
2019-03-29T05:55:06.404Z,53.70
2019-03-29T05:57:36.719Z,44.73
2019-03-29T06:00:07.759Z,61.90
2019-03-29T06:02:46.685Z,50.90
2019-03-29T06:05:20.240Z,48.03
2019-03-29T06:07:51.583Z,51.53
2019-03-29T06:10:22.779Z,45.40
2019-03-29T06:12:55.361Z,43.23
2019-03-29T06:15:25.702Z,42.60
2019-03-29T06:17:55.885Z,44.50
2019-03-29T06:20:26.018Z,35.37
2019-03-29T06:22:57.614Z,36.70
2019-03-29T06:25:28.956Z,31.37
2019-03-29T06:28:02.453Z,46.57
2019-03-29T06:30:35.732Z,38.67
2019-03-29T06:33:05.862Z,31.00
2019-03-29T06:35:39.943Z,31.70
2019-03-29T06:38:11.282Z,34.47
2019-03-29T06:40:41.485Z,33.50
2019-03-29T06:43:11.691Z,36.07
2019-03-29T06:45:47.764Z,25.40
2019-03-29T06:48:17.024Z,35.80
2019-03-29T06:50:47.442Z,30.50
2019-03-29T06:53:21.123Z,35.13
2019-03-29T06:55:52.577Z,36.43
2019-03-29T06:58:22.755Z,29.80
2019-03-29T07:00:52.929Z,29.80
2019-03-29T07:03:23.117Z,34.27
2019-03-29T07:05:58.143Z,27.50
2019-03-29T07:08:28.854Z,25.17
2019-03-29T07:11:16.185Z,21.80
2019-03-29T07:13:38.765Z,27.43
2019-03-29T07:16:09.325Z,25.10
2019-03-29T07:18:41.772Z,25.33
2019-03-29T07:21:21.515Z,25.70
2019-03-29T07:23:45.533Z,27.57
2019-03-29T07:26:15.732Z,24.90
2019-03-29T07:28:46.016Z,28.03
2019-03-29T07:31:16.256Z,22.23
2019-03-29T07:33:47.515Z,23.17
2019-03-29T07:36:21.538Z,21.33
2019-03-29T07:38:52.996Z,23.47
2019-03-29T07:41:32.155Z,24.20
2019-03-29T07:43:59.106Z,13.43
2019-03-29T07:46:29.433Z,18.63
2019-03-29T07:48:59.603Z,17.37
2019-03-29T07:51:29.825Z,14.07
2019-03-29T07:54:04.286Z,10.20
2019-03-29T07:56:34.208Z,12.50
2019-03-29T07:59:04.485Z,9.73
2019-03-29T08:01:36.151Z,12.87
2019-03-29T08:04:08.904Z,21.50
2019-03-29T08:06:39.200Z,18.20
2019-03-29T08:09:21.590Z,8.13
2019-03-29T08:11:46.552Z,8.97
2019-03-29T08:14:15.094Z,7.97
2019-03-29T08:16:47.234Z,9.47
2019-03-29T08:19:18.480Z,13.83
2019-03-29T08:21:50.094Z,8.30
2019-03-29T08:24:21.736Z,11.03
2019-03-29T08:26:53.621Z,13.73
2019-03-29T08:29:27.118Z,9.70
2019-03-29T08:31:58.111Z,8.43
2019-03-29T08:34:30.389Z,8.13
2019-03-29T08:37:02.783Z,10.30
2019-03-29T08:39:33.576Z,7.87
2019-03-29T08:42:11.321Z,7.97
2019-03-29T08:44:41.602Z,14.93
2019-03-29T08:47:13.274Z,8.00
2019-03-29T08:49:43.670Z,7.40
2019-03-29T08:52:15.467Z,9.73
2019-03-29T08:54:51.001Z,9.43
2019-03-29T08:57:23.226Z,7.00
2019-03-29T08:59:50.393Z,7.70
2019-03-29T09:02:20.814Z,8.07
2019-03-29T09:04:53.217Z,12.77
2019-03-29T09:07:27.951Z,11.43
2019-03-29T09:10:00.431Z,9.13
2019-03-29T09:12:32.450Z,8.23
2019-03-29T09:15:03.910Z,7.83
2019-03-29T09:17:37.533Z,8.10
2019-03-29T09:20:10.419Z,10.00
2019-03-29T09:22:39.309Z,7.10
2019-03-29T09:25:14.203Z,7.27
2019-03-29T09:27:44.343Z,12.50
2019-03-29T09:30:18.135Z,10.57
2019-03-29T09:32:51.465Z,8.37
2019-03-29T09:35:23.650Z,8.97
2019-03-29T09:37:56.390Z,9.30
2019-03-29T09:40:32.541Z,10.40
2019-03-29T09:43:09.836Z,9.63
2019-03-29T09:45:34.506Z,8.60
2019-03-29T09:48:04.692Z,9.70
2019-03-29T09:50:34.766Z,11.07
2019-03-29T09:53:05.026Z,15.30
2019-03-29T09:55:35.195Z,11.73
2019-03-29T09:58:08.770Z,10.53
2019-03-29T10:00:41.964Z,7.70
2019-03-29T10:03:12.153Z,13.80
2019-03-29T10:05:42.126Z,7.73
2019-03-29T10:08:12.313Z,7.97
2019-03-29T10:10:43.762Z,8.10
2019-03-29T10:13:13.864Z,9.00
2019-03-29T10:15:46.322Z,10.80
2019-03-29T10:18:17.720Z,13.87
2019-03-29T10:20:47.930Z,9.13
2019-03-29T10:23:19.423Z,9.10
2019-03-29T10:25:51.359Z,5.90
2019-03-29T10:28:23.784Z,9.33
2019-03-29T10:30:56.218Z,8.03
2019-03-29T10:33:26.561Z,11.53
2019-03-29T10:35:56.759Z,9.13
2019-03-29T10:38:28.191Z,9.00
2019-03-29T10:40:59.599Z,6.57
2019-03-29T10:43:29.674Z,5.03
2019-03-29T10:45:59.836Z,8.30
2019-03-29T10:48:30.141Z,6.17
2019-03-29T10:51:00.274Z,5.10
2019-03-29T10:53:30.483Z,4.17
2019-03-29T10:56:00.833Z,15.67
2019-03-29T10:58:30.988Z,9.13
2019-03-29T11:01:01.249Z,10.27
2019-03-29T11:03:31.669Z,5.17
2019-03-29T11:06:01.818Z,6.60
2019-03-29T11:08:32.092Z,13.07
2019-03-29T11:11:02.320Z,6.97
2019-03-29T11:13:32.452Z,6.60
2019-03-29T11:16:02.551Z,9.50
2019-03-29T11:18:32.770Z,5.00
2019-03-29T11:21:02.958Z,8.67
2019-03-29T11:23:35.285Z,8.17
2019-03-29T11:26:05.518Z,7.67
2019-03-29T11:28:36.843Z,12.77
2019-03-29T11:31:07.129Z,6.50
2019-03-29T11:33:38.594Z,7.67
2019-03-29T11:36:10.423Z,7.33
2019-03-29T11:38:40.583Z,13.10
2019-03-29T11:41:12.785Z,6.03
2019-03-29T11:43:42.918Z,8.03
2019-03-29T11:46:14.070Z,7.73
2019-03-29T11:48:44.229Z,14.60
2019-03-29T11:51:19.785Z,7.70
2019-03-29T11:53:52.854Z,7.47
2019-03-29T11:56:24.251Z,8.10
2019-03-29T11:58:54.472Z,12.87
2019-03-29T12:01:24.634Z,18.07
2019-03-29T12:03:55.877Z,6.40
2019-03-29T12:06:26.006Z,11.20
2019-03-29T12:08:57.193Z,10.03
2019-03-29T12:11:27.607Z,9.47
2019-03-29T12:13:57.786Z,7.37
2019-03-29T12:16:28.008Z,6.10
2019-03-29T12:18:59.478Z,7.87
2019-03-29T12:21:31.140Z,8.27
2019-03-29T12:24:02.287Z,7.03
2019-03-29T12:26:33.514Z,6.63
2019-03-29T12:29:04.791Z,12.67
2019-03-29T12:31:36.354Z,11.10
2019-03-29T12:34:06.445Z,10.17
2019-03-29T12:36:38.232Z,8.50
2019-03-29T12:39:08.962Z,5.83
2019-03-29T12:41:42.002Z,11.40
2019-03-29T12:44:12.153Z,12.40
2019-03-29T12:46:42.253Z,13.70
2019-03-29T12:49:13.632Z,7.13
2019-03-29T12:51:46.437Z,11.63
2019-03-29T12:54:18.042Z,12.70
2019-03-29T12:56:48.126Z,15.30
2019-03-29T12:59:18.323Z,15.80
2019-03-29T13:01:48.615Z,11.97
2019-03-29T13:04:18.821Z,16.27
2019-03-29T13:06:49.018Z,19.33
2019-03-29T13:09:19.269Z,6.57
2019-03-29T13:11:50.867Z,9.93
2019-03-29T13:14:22.561Z,10.37
2019-03-29T13:16:52.737Z,7.90
2019-03-29T13:19:23.007Z,9.73
2019-03-29T13:21:53.191Z,16.53
2019-03-29T13:24:23.649Z,11.83
2019-03-29T13:26:55.356Z,14.60
2019-03-29T13:29:29.588Z,8.43
2019-03-29T13:32:00.819Z,8.00
2019-03-29T13:34:31.001Z,15.23
2019-03-29T13:37:02.261Z,9.03
2019-03-29T13:39:34.885Z,8.40
2019-03-29T13:42:05.091Z,11.57
2019-03-29T13:44:36.676Z,11.67
2019-03-29T13:47:06.847Z,8.13
2019-03-29T13:49:38.343Z,10.23
2019-03-29T13:52:08.596Z,13.90
2019-03-29T13:54:38.735Z,14.87
2019-03-29T13:57:08.924Z,26.17
2019-03-29T13:59:39.074Z,10.27
2019-03-29T14:02:09.259Z,12.20
2019-03-29T14:04:40.870Z,13.10
2019-03-29T14:07:10.982Z,12.73
2019-03-29T14:09:41.157Z,14.70
2019-03-29T14:12:13.824Z,21.77
2019-03-29T14:14:43.987Z,15.70
2019-03-29T14:17:14.112Z,9.77
2019-03-29T14:19:44.301Z,9.47
2019-03-29T14:22:14.350Z,21.17
2019-03-29T14:24:46.524Z,15.87
2019-03-29T14:27:16.821Z,15.23
2019-03-29T14:29:47.899Z,19.27
2019-03-29T14:32:22.444Z,11.60
2019-03-29T14:34:53.574Z,13.30
2019-03-29T14:37:24.600Z,14.87
2019-03-29T14:39:56.078Z,8.50
2019-03-29T14:42:30.889Z,8.80
2019-03-29T14:45:02.869Z,9.80
2019-03-29T14:47:41.392Z,7.47
2019-03-29T14:50:05.430Z,7.73
2019-03-29T14:52:35.760Z,9.80
2019-03-29T14:55:06.567Z,15.30
2019-03-29T14:57:36.912Z,9.27
2019-03-29T15:00:09.818Z,9.13
2019-03-29T15:02:40.239Z,9.33
2019-03-29T15:05:11.100Z,14.17
2019-03-29T15:07:42.729Z,10.23
2019-03-29T15:10:35.424Z,9.77
2019-03-29T15:13:09.839Z,8.83
2019-03-29T15:15:40.119Z,11.23
2019-03-29T15:18:10.297Z,8.63
2019-03-29T15:20:53.313Z,8.73
2019-03-29T15:23:18.718Z,9.87
2019-03-29T15:25:50.723Z,11.70
2019-03-29T15:28:20.988Z,12.37
2019-03-29T15:30:52.548Z,9.53
2019-03-29T15:33:22.955Z,9.30
2019-03-29T15:35:53.206Z,7.60
2019-03-29T15:38:23.385Z,8.93
2019-03-29T15:40:56.919Z,11.87
2019-03-29T15:43:26.958Z,9.70
2019-03-29T15:45:57.360Z,13.00
2019-03-29T15:48:32.165Z,9.67
2019-03-29T15:51:02.277Z,9.50
2019-03-29T15:53:33.428Z,9.13
2019-03-29T15:56:04.616Z,8.50
2019-03-29T15:58:34.693Z,9.43
2019-03-29T16:01:04.954Z,11.73
2019-03-29T16:03:38.155Z,11.00
2019-03-29T16:06:11.302Z,44.73
2019-03-29T16:08:42.669Z,11.23
2019-03-29T16:11:16.986Z,28.47
2019-03-29T16:13:48.702Z,13.43
2019-03-29T16:16:18.883Z,15.07
2019-03-29T16:18:50.449Z,13.80
2019-03-29T16:21:20.606Z,15.87
2019-03-29T16:23:50.803Z,10.93
2019-03-29T16:26:20.938Z,13.10
2019-03-29T16:28:51.129Z,13.93
2019-03-29T16:31:21.266Z,17.20
2019-03-29T16:33:52.683Z,16.10
2019-03-29T16:36:22.744Z,8.87
2019-03-29T16:38:53.040Z,9.77
2019-03-29T16:41:23.303Z,17.43
2019-03-29T16:43:53.837Z,25.57
2019-03-29T16:46:23.994Z,17.63
2019-03-29T16:48:54.041Z,21.50
2019-03-29T16:51:24.245Z,16.50
2019-03-29T16:53:54.766Z,44.47
2019-03-29T16:56:25.040Z,16.50
2019-03-29T16:58:55.085Z,17.90
2019-03-29T17:01:25.341Z,18.30
2019-03-29T17:03:59.250Z,15.17
2019-03-29T17:06:29.411Z,12.23
2019-03-29T17:08:59.660Z,20.13
2019-03-29T17:11:29.847Z,19.50
2019-03-29T17:14:00.020Z,17.23
2019-03-29T17:16:30.911Z,14.17
2019-03-29T17:19:01.224Z,14.77
2019-03-29T17:21:31.511Z,22.03
2019-03-29T17:24:01.823Z,26.20
2019-03-29T17:26:32.039Z,18.67
2019-03-29T17:29:02.231Z,22.63
2019-03-29T17:31:32.361Z,16.57
2019-03-29T17:34:02.463Z,16.77
2019-03-29T17:36:34.789Z,20.23
2019-03-29T17:39:06.132Z,19.10
2019-03-29T17:41:36.278Z,17.47
2019-03-29T17:44:08.512Z,23.23
2019-03-29T17:46:38.254Z,25.60
2019-03-29T17:49:08.426Z,29.83
2019-03-29T17:51:38.523Z,21.23
2019-03-29T17:54:08.724Z,21.17
2019-03-29T17:56:39.045Z,20.93
2019-03-29T17:59:09.327Z,18.80
2019-03-29T18:01:39.593Z,21.90
2019-03-29T18:04:14.010Z,26.40
2019-03-29T18:06:46.862Z,47.93
2019-03-29T18:09:16.027Z,22.33
2019-03-29T18:11:47.504Z,24.13
2019-03-29T18:14:17.631Z,23.77
2019-03-29T18:16:47.841Z,28.50
2019-03-29T18:19:18.223Z,28.70
2019-03-29T18:21:49.426Z,33.47
2019-03-29T18:24:19.599Z,39.63
2019-03-29T18:26:49.700Z,26.87
2019-03-29T18:29:19.867Z,20.00
2019-03-29T18:31:50.074Z,21.80
2019-03-29T18:34:20.357Z,23.07
2019-03-29T18:36:50.939Z,21.77
2019-03-29T18:39:22.430Z,27.37
2019-03-29T18:41:52.443Z,40.37
2019-03-29T18:44:22.537Z,48.40
2019-03-29T18:46:52.883Z,40.27
2019-03-29T18:49:23.031Z,27.27
2019-03-29T18:51:53.155Z,25.70
2019-03-29T18:54:23.525Z,29.87
2019-03-29T18:56:53.774Z,27.80
2019-03-29T18:59:23.929Z,39.47
2019-03-29T19:01:54.092Z,54.60
2019-03-29T19:04:34.038Z,90.30
2019-03-29T19:07:05.466Z,63.30
2019-03-29T19:09:35.466Z,61.93
2019-03-29T19:12:05.759Z,58.77
2019-03-29T19:14:35.907Z,41.67
2019-03-29T19:17:06.152Z,64.43
2019-03-29T19:19:36.420Z,74.80
2019-03-29T19:22:06.697Z,137.47
2019-03-29T19:24:36.850Z,119.67
2019-03-29T19:27:06.921Z,79.93
2019-03-29T19:29:37.279Z,82.93
2019-03-29T19:32:07.460Z,69.32
2019-03-29T19:34:40.983Z,48.63
2019-03-29T19:37:11.257Z,47.07
2019-03-29T19:39:43.581Z,48.20
2019-03-29T19:42:16.621Z,52.60
2019-03-29T19:44:45.754Z,74.32
2019-03-29T19:47:16.016Z,64.57
2019-03-29T19:49:46.241Z,56.30
2019-03-29T19:52:19.019Z,48.53
2019-03-29T19:54:52.751Z,40.67
2019-03-29T19:57:22.931Z,51.28
2019-03-29T19:59:54.531Z,37.10
2019-03-29T20:02:24.616Z,39.63
2019-03-29T20:04:54.832Z,36.43
2019-03-29T20:07:25.024Z,34.27
2019-03-29T20:09:55.215Z,52.08
2019-03-29T20:12:25.448Z,43.67
2019-03-29T20:14:57.684Z,40.40
2019-03-29T20:17:28.057Z,45.60
2019-03-29T20:19:58.451Z,40.50
2019-03-29T20:22:28.720Z,36.65
2019-03-29T20:25:00.377Z,39.77
2019-03-29T20:27:30.674Z,34.30
2019-03-29T20:30:00.865Z,44.40
2019-03-29T20:32:31.004Z,50.87
2019-03-29T20:35:01.180Z,43.73
2019-03-29T20:37:31.326Z,49.33
2019-03-29T20:40:01.545Z,46.33
2019-03-29T20:42:31.749Z,48.33
2019-03-29T20:45:01.988Z,45.40
2019-03-29T20:47:42.039Z,52.03
2019-03-29T20:50:04.113Z,45.70
2019-03-29T20:52:34.147Z,42.50
2019-03-29T20:55:04.677Z,55.23
2019-03-29T20:57:34.920Z,45.73
2019-03-29T21:00:05.969Z,41.70
2019-03-29T21:02:36.260Z,35.03
2019-03-29T21:05:07.188Z,36.77
2019-03-29T21:07:37.560Z,40.70
2019-03-29T21:10:08.158Z,28.50
2019-03-29T21:12:38.440Z,30.60
2019-03-29T21:15:09.302Z,32.80
2019-03-29T21:17:55.491Z,32.30
2019-03-29T21:20:15.208Z,38.23
2019-03-29T21:22:45.450Z,30.40
2019-03-29T21:25:15.828Z,27.50
2019-03-29T21:27:46.038Z,37.13
2019-03-29T21:30:16.779Z,30.90
2019-03-29T21:32:46.966Z,39.80
2019-03-29T21:35:19.670Z,27.67
2019-03-29T21:37:49.834Z,25.37
2019-03-29T21:40:20.204Z,21.93
2019-03-29T21:42:51.573Z,19.67
2019-03-29T21:45:29.001Z,28.70
2019-03-29T21:48:02.304Z,21.27
2019-03-29T21:50:29.148Z,26.20
2019-03-29T21:53:00.625Z,31.33
2019-03-29T21:55:30.682Z,31.43
2019-03-29T21:58:01.824Z,30.50
2019-03-29T22:00:34.468Z,28.70
2019-03-29T22:03:07.534Z,27.50
2019-03-29T22:05:37.710Z,31.67
2019-03-29T22:08:07.889Z,27.47
2019-03-29T22:10:38.136Z,25.50
2019-03-29T22:13:08.324Z,18.10
2019-03-29T22:15:38.522Z,22.87
2019-03-29T22:18:08.753Z,26.27
2019-03-29T22:20:39.988Z,27.17
2019-03-29T22:23:12.426Z,23.60
2019-03-29T22:25:42.560Z,25.93
2019-03-29T22:28:15.252Z,24.67
2019-03-29T22:30:47.358Z,22.17
2019-03-29T22:33:17.413Z,20.40
2019-03-29T22:35:49.172Z,22.20
2019-03-29T22:38:19.373Z,26.73
2019-03-29T22:40:49.443Z,21.67
2019-03-29T22:43:20.852Z,20.17
2019-03-29T22:45:53.705Z,24.90
2019-03-29T22:48:26.069Z,22.57
2019-03-29T22:50:56.117Z,16.40
2019-03-29T22:53:30.302Z,15.47
2019-03-29T22:56:00.611Z,20.67
2019-03-29T22:58:33.036Z,19.70
2019-03-29T23:01:04.327Z,17.70
2019-03-29T23:03:36.807Z,19.40
2019-03-29T23:06:11.820Z,19.77
2019-03-29T23:08:46.088Z,18.00
2019-03-29T23:11:16.153Z,15.33
2019-03-29T23:13:49.208Z,19.27
2019-03-29T23:16:20.823Z,16.87
2019-03-29T23:18:51.023Z,17.07
2019-03-29T23:21:21.097Z,21.20
2019-03-29T23:23:51.405Z,16.20
2019-03-29T23:26:21.548Z,19.87
2019-03-29T23:28:51.769Z,34.00
2019-03-29T23:31:23.286Z,26.57
2019-03-29T23:33:54.879Z,26.17
2019-03-29T23:36:27.941Z,21.63
2019-03-29T23:38:58.294Z,29.43
2019-03-29T23:41:30.569Z,20.90
2019-03-29T23:44:00.312Z,29.00
2019-03-29T23:46:30.553Z,29.03
2019-03-29T23:49:00.738Z,30.37
2019-03-29T23:51:30.933Z,23.90
2019-03-29T23:54:01.049Z,24.13
2019-03-29T23:56:31.309Z,24.03
2019-03-29T23:59:01.544Z,25.53
